createdAt,value
2022-09-05T00:02:39.361Z,75.73
2022-09-05T00:06:10.367Z,75.93
2022-09-05T00:09:09.643Z,75.74
2022-09-05T00:12:00.915Z,75.41
2022-09-05T00:15:15.869Z,74.91
2022-09-05T00:23:45.519Z,74.83
2022-09-05T00:24:33.059Z,74.82
2022-09-05T00:25:30.711Z,74.80
2022-09-05T00:28:26.476Z,74.49
2022-09-05T00:31:53.774Z,74.43
2022-09-05T00:35:06.865Z,74.58
2022-09-05T00:37:53.612Z,74.30
2022-09-05T00:40:59.040Z,74.28
2022-09-05T00:43:49.783Z,74.60
2022-09-05T00:46:41.653Z,74.60
2022-09-05T00:49:36.835Z,74.72
2022-09-05T00:52:41.056Z,74.67
2022-09-05T00:55:45.071Z,74.78
2022-09-05T00:58:56.676Z,75.03
2022-09-05T01:01:51.704Z,75.25
2022-09-05T01:04:55.372Z,75.38
2022-09-05T01:08:09.020Z,75.57
2022-09-05T01:10:54.321Z,75.68
2022-09-05T01:14:09.166Z,75.79
2022-09-05T01:17:29.678Z,76.13
2022-09-05T01:20:32.076Z,76.46
2022-09-05T01:23:24.915Z,76.44
2022-09-05T01:26:13.543Z,76.37
2022-09-05T01:29:15.737Z,76.64
2022-09-05T01:32:18.702Z,77.07
2022-09-05T01:35:26.447Z,76.91
2022-09-05T01:38:24.067Z,76.70
2022-09-05T01:41:34.436Z,76.76
2022-09-05T01:44:42.056Z,76.84
2022-09-05T01:47:30.887Z,76.79
2022-09-05T01:50:41.358Z,76.94
2022-09-05T01:53:38.408Z,76.85
2022-09-05T01:56:47.142Z,76.81
2022-09-05T01:59:53.916Z,76.52
2022-09-05T02:02:50.461Z,76.26
2022-09-05T02:06:21.577Z,76.19
2022-09-05T02:09:44.868Z,75.84
2022-09-05T02:12:56.846Z,75.88
2022-09-05T02:16:07.354Z,75.40
2022-09-05T02:19:12.449Z,75.53
2022-09-05T02:22:11.375Z,75.50
2022-09-05T02:26:01.660Z,75.84
2022-09-05T02:28:46.643Z,75.99
2022-09-05T02:31:47.646Z,75.90
2022-09-05T02:35:01.748Z,76.18
2022-09-05T02:40:07.745Z,76.51
2022-09-05T02:45:07.890Z,76.71
2022-09-05T02:45:24.075Z,77.02
2022-09-05T02:48:15.585Z,77.18
2022-09-05T02:57:07.798Z,77.44
2022-09-05T02:57:38.337Z,77.94
2022-09-05T02:58:05.621Z,78.21
2022-09-05T03:00:57.157Z,77.99
2022-09-05T03:04:00.934Z,78.37
2022-09-05T03:07:24.178Z,78.60
2022-09-05T03:10:48.452Z,78.57
2022-09-05T03:13:54.316Z,79.01
2022-09-05T03:16:49.360Z,78.82
2022-09-05T03:19:46.655Z,78.65
2022-09-05T03:22:59.821Z,78.56
2022-09-05T03:26:09.026Z,78.15
2022-09-05T03:29:31.500Z,78.12
2022-09-05T03:32:42.110Z,77.98
2022-09-05T03:35:46.598Z,77.65
2022-09-05T03:38:53.576Z,77.54
2022-09-05T03:41:58.112Z,77.49
2022-09-05T03:45:01.505Z,77.42
2022-09-05T03:47:47.291Z,77.41
2022-09-05T03:57:04.286Z,77.34
2022-09-05T03:57:17.662Z,77.22
2022-09-05T03:57:43.025Z,77.17
2022-09-05T04:00:33.719Z,76.88
2022-09-05T04:08:08.391Z,76.53
2022-09-05T04:08:24.291Z,76.69
2022-09-05T04:09:51.702Z,76.59
2022-09-05T04:12:54.309Z,76.60
2022-09-05T04:16:09.545Z,76.43
2022-09-05T04:19:22.039Z,76.59
2022-09-05T04:22:23.111Z,76.66
2022-09-05T04:25:39.877Z,77.16
2022-09-05T04:28:31.633Z,77.48
2022-09-05T04:31:32.101Z,77.73
2022-09-05T04:34:34.718Z,77.98
2022-09-05T04:37:59.725Z,78.50
2022-09-05T04:41:39.449Z,78.45
2022-09-05T04:44:55.629Z,78.56
2022-09-05T04:47:52.467Z,78.68
2022-09-05T04:51:04.467Z,78.65
2022-09-05T04:54:10.688Z,78.85
2022-09-05T04:57:11.733Z,78.78
2022-09-05T05:06:03.875Z,78.87
2022-09-05T05:06:08.720Z,78.82
2022-09-05T05:06:49.338Z,78.80
2022-09-05T05:09:44.760Z,78.53
2022-09-05T05:17:57.239Z,78.58
2022-09-05T05:17:59.442Z,78.57
2022-09-05T05:19:18.700Z,78.31
2022-09-05T05:22:14.983Z,78.32
2022-09-05T05:25:01.696Z,78.16
2022-09-05T05:28:10.250Z,77.94
2022-09-05T05:31:15.351Z,77.64
2022-09-05T05:34:09.736Z,77.14
2022-09-05T05:37:20.818Z,76.86
2022-09-05T05:40:15.314Z,76.30
2022-09-05T05:43:21.781Z,75.96
2022-09-05T05:46:12.324Z,75.52
2022-09-05T05:49:27.173Z,75.21
2022-09-05T05:52:27.995Z,75.43
2022-09-05T05:55:50.882Z,75.20
2022-09-05T05:59:08.277Z,75.49
2022-09-05T06:02:24.067Z,75.70
2022-09-05T06:05:41.595Z,75.74
2022-09-05T06:10:33.853Z,75.71
2022-09-05T06:15:06.828Z,75.45
2022-09-05T06:15:44.945Z,75.68
2022-09-05T06:18:45.987Z,75.70
2022-09-05T06:22:09.040Z,75.47
2022-09-05T06:25:17.729Z,75.19
2022-09-05T06:28:55.732Z,75.15
2022-09-05T06:32:18.970Z,74.83
2022-09-05T06:35:32.344Z,74.32
2022-09-05T06:38:23.732Z,73.96
2022-09-05T06:41:22.492Z,73.72
2022-09-05T06:44:17.232Z,73.53
2022-09-05T06:47:24.143Z,72.18
2022-09-05T06:50:26.930Z,71.54
2022-09-05T06:53:44.797Z,71.72
2022-09-05T06:56:53.213Z,71.68
2022-09-05T06:59:53.026Z,71.29
2022-09-05T07:03:00.184Z,70.63
2022-09-05T07:05:58.623Z,70.78
2022-09-05T07:08:54.136Z,70.19
2022-09-05T07:12:13.696Z,69.61
2022-09-05T07:15:28.689Z,68.34
2022-09-05T07:18:22.576Z,69.06
2022-09-05T07:21:26.307Z,68.77
2022-09-05T07:24:34.628Z,68.36
2022-09-05T07:28:17.961Z,67.33
2022-09-05T07:30:48.669Z,66.53
2022-09-05T07:33:39.242Z,66.66
2022-09-05T07:36:34.958Z,65.73
2022-09-05T07:39:29.104Z,65.56
2022-09-05T07:42:21.840Z,65.32
2022-09-05T07:45:13.782Z,65.19
2022-09-05T07:48:05.470Z,65.04
2022-09-05T07:56:47.726Z,64.60
2022-09-05T07:57:09.778Z,63.90
2022-09-05T07:57:34.995Z,63.71
2022-09-05T08:00:38.261Z,63.29
2022-09-05T08:03:29.333Z,62.53
2022-09-05T08:06:57.033Z,62.80
2022-09-05T08:10:09.417Z,62.36
2022-09-05T08:13:23.573Z,61.75
2022-09-05T08:16:13.488Z,61.68
2022-09-05T08:19:21.405Z,61.54
2022-09-05T08:22:14.044Z,61.32
2022-09-05T08:25:06.528Z,61.11
2022-09-05T08:28:03.901Z,60.95
2022-09-05T08:31:01.902Z,61.12
2022-09-05T08:33:52.148Z,61.52
2022-09-05T08:36:52.542Z,61.68
2022-09-05T08:39:39.922Z,60.69
2022-09-05T08:42:55.794Z,61.09
2022-09-05T08:46:42.372Z,60.68
2022-09-05T08:49:57.891Z,60.05
2022-09-05T08:52:59.448Z,59.86
2022-09-05T08:55:59.283Z,59.83
2022-09-05T08:59:31.509Z,59.55
2022-09-05T09:02:56.217Z,58.40
2022-09-05T09:06:14.507Z,58.50
2022-09-05T09:09:36.582Z,58.12
2022-09-05T09:12:50.066Z,57.95
2022-09-05T09:15:56.784Z,57.31
2022-09-05T09:19:14.478Z,57.24
2022-09-05T09:22:37.025Z,57.40
2022-09-05T09:25:38.382Z,57.62
2022-09-05T09:29:04.101Z,57.76
2022-09-05T09:32:02.059Z,58.08
2022-09-05T09:35:10.582Z,57.49
2022-09-05T09:38:48.092Z,56.44
2022-09-05T09:42:03.198Z,55.34
2022-09-05T09:44:58.292Z,54.05
2022-09-05T09:47:49.617Z,54.01
2022-09-05T09:51:07.125Z,54.99
2022-09-05T09:54:11.670Z,55.20
2022-09-05T09:56:56.954Z,52.90
2022-09-05T10:00:12.864Z,52.60
2022-09-05T10:10:38.302Z,51.82
2022-09-05T10:10:48.194Z,51.80
2022-09-05T10:10:52.851Z,51.82
2022-09-05T10:13:59.804Z,51.84
2022-09-05T10:17:13.359Z,50.47
2022-09-05T10:20:38.293Z,49.16
2022-09-05T10:23:36.198Z,49.25
2022-09-05T10:27:06.963Z,49.51
2022-09-05T10:30:10.506Z,47.58
2022-09-05T10:34:31.113Z,46.35
2022-09-05T10:36:30.105Z,45.34
2022-09-05T10:39:21.249Z,44.66
2022-09-05T10:42:19.059Z,45.71
2022-09-05T10:45:14.529Z,45.45
2022-09-05T10:48:25.092Z,43.48
2022-09-05T10:51:30.028Z,43.92
2022-09-05T10:54:39.589Z,41.68
2022-09-05T10:57:50.687Z,40.55
2022-09-05T11:02:22.513Z,40.35
2022-09-05T11:03:52.726Z,38.69
2022-09-05T11:07:00.431Z,38.78
2022-09-05T11:10:12.303Z,39.07
2022-09-05T11:13:10.562Z,39.47
2022-09-05T11:16:04.561Z,39.42
2022-09-05T11:18:57.499Z,40.04
2022-09-05T11:21:48.817Z,39.93
2022-09-05T11:25:00.180Z,40.49
2022-09-05T11:27:50.180Z,40.95
2022-09-05T11:30:40.841Z,40.39
2022-09-05T11:38:17.906Z,41.00
2022-09-05T11:39:52.456Z,40.81
2022-09-05T11:40:30.229Z,41.25
2022-09-05T11:43:50.687Z,41.65
2022-09-05T11:47:26.585Z,40.86
2022-09-05T11:50:09.296Z,39.26
2022-09-05T11:53:36.811Z,38.98
2022-09-05T11:56:45.969Z,38.57
2022-09-05T12:00:33.252Z,38.44
2022-09-05T12:03:56.983Z,38.87
2022-09-05T12:06:49.308Z,37.45
2022-09-05T12:09:54.160Z,36.29
2022-09-05T12:12:51.316Z,36.11
2022-09-05T12:15:45.721Z,36.13
2022-09-05T12:19:22.983Z,34.38
2022-09-05T12:22:24.883Z,35.19
2022-09-05T12:27:40.544Z,35.01
2022-09-05T12:29:33.045Z,35.16
2022-09-05T12:33:48.068Z,35.11
2022-09-05T12:36:08.152Z,33.97
2022-09-05T12:40:48.191Z,32.16
2022-09-05T12:42:15.074Z,32.03
2022-09-05T12:45:32.469Z,33.75
2022-09-05T12:48:39.301Z,33.65
2022-09-05T12:51:45.976Z,33.19
2022-09-05T12:55:00.147Z,33.68
2022-09-05T13:02:26.467Z,34.36
2022-09-05T13:03:08.605Z,34.60
2022-09-05T13:04:32.069Z,35.40
2022-09-05T13:07:24.159Z,35.15
2022-09-05T13:12:19.760Z,34.35
2022-09-05T13:14:53.191Z,33.74
2022-09-05T13:16:43.903Z,33.84
2022-09-05T13:19:51.867Z,33.13
2022-09-05T13:22:48.616Z,32.26
2022-09-05T13:25:37.362Z,31.98
2022-09-05T13:28:27.674Z,32.13
2022-09-05T13:37:54.109Z,31.33
2022-09-05T13:38:10.168Z,31.06
2022-09-05T13:38:16.018Z,29.93
2022-09-05T13:41:00.262Z,29.33
2022-09-05T13:43:46.317Z,28.58
2022-09-05T13:47:29.559Z,28.59
2022-09-05T13:50:25.981Z,28.17
2022-09-05T13:53:36.669Z,26.90
2022-09-05T13:56:30.847Z,26.32
2022-09-05T13:59:19.900Z,26.01
2022-09-05T14:02:26.423Z,26.18
2022-09-05T14:05:31.159Z,26.23
2022-09-05T14:08:27.949Z,26.40
2022-09-05T14:11:32.197Z,25.83
2022-09-05T14:17:53.338Z,25.89
2022-09-05T14:21:08.691Z,26.92
2022-09-05T14:24:09.875Z,27.50
2022-09-05T14:27:03.304Z,27.59
2022-09-05T14:29:56.974Z,27.65
2022-09-05T14:37:40.628Z,27.54
2022-09-05T14:37:41.494Z,27.16
2022-09-05T14:40:29.969Z,27.27
2022-09-05T14:43:26.798Z,27.18
2022-09-05T14:46:38.771Z,27.47
2022-09-05T14:49:13.078Z,28.53
2022-09-05T14:51:46.892Z,28.74
2022-09-05T15:02:38.120Z,30.65
2022-09-05T15:02:43.485Z,30.75
2022-09-05T15:03:05.551Z,31.72
2022-09-05T15:05:41.164Z,32.27
2022-09-05T15:08:53.784Z,32.83
2022-09-05T15:12:19.617Z,33.68
2022-09-05T15:14:04.701Z,34.63
2022-09-05T15:16:43.796Z,34.50
2022-09-05T15:19:34.102Z,34.58
2022-09-05T15:22:27.434Z,35.23
2022-09-05T15:25:17.989Z,36.34
2022-09-05T15:27:47.558Z,37.49
2022-09-05T15:30:27.538Z,37.42
2022-09-05T15:33:25.873Z,38.02
2022-09-05T15:35:55.800Z,38.42
2022-09-05T15:38:29.299Z,38.80
2022-09-05T15:41:30.269Z,39.27
2022-09-05T15:44:09.829Z,39.90
2022-09-05T15:46:46.339Z,39.62
2022-09-05T15:49:37.460Z,40.05
2022-09-05T15:52:11.484Z,40.43
2022-09-05T15:54:49.731Z,41.15
2022-09-05T15:57:28.712Z,41.13
2022-09-05T16:00:00.214Z,40.66
2022-09-05T16:02:32.180Z,40.80
2022-09-05T16:10:27.814Z,41.44
2022-09-05T16:10:48.665Z,41.75
2022-09-05T16:14:15.205Z,42.89
2022-09-05T16:23:17.853Z,43.11
2022-09-05T16:23:23.414Z,43.51
2022-09-05T16:23:23.937Z,44.11
2022-09-05T16:25:58.088Z,44.92
2022-09-05T16:28:31.444Z,45.54
2022-09-05T16:31:10.383Z,46.13
2022-09-05T16:33:43.496Z,46.48
2022-09-05T16:36:16.286Z,46.52
2022-09-05T16:38:50.520Z,46.91
2022-09-05T16:41:38.328Z,47.41
2022-09-05T16:44:36.306Z,47.81
2022-09-05T16:47:23.429Z,48.03
2022-09-05T16:50:01.408Z,48.14
2022-09-05T16:52:54.020Z,48.54
2022-09-05T16:55:41.400Z,49.15
2022-09-05T16:58:32.201Z,50.10
2022-09-05T17:01:16.044Z,50.35
2022-09-05T17:04:15.807Z,50.47
2022-09-05T17:07:07.788Z,50.92
2022-09-05T17:09:36.076Z,51.18
2022-09-05T17:12:13.972Z,51.54
2022-09-05T17:14:49.925Z,52.12
2022-09-05T17:18:20.652Z,52.66
2022-09-05T17:20:14.734Z,54.10
2022-09-05T17:25:14.011Z,54.72
2022-09-05T17:29:25.033Z,54.58
2022-09-05T17:29:45.518Z,54.82
2022-09-05T17:31:53.454Z,54.69
2022-09-05T17:34:24.463Z,55.36
2022-09-05T17:37:16.003Z,55.43
2022-09-05T17:40:04.662Z,56.03
2022-09-05T17:42:50.904Z,56.95
2022-09-05T17:45:45.144Z,57.27
2022-09-05T17:48:16.721Z,57.27
2022-09-05T17:50:54.169Z,58.00
2022-09-05T17:53:26.090Z,57.99
2022-09-05T17:55:55.264Z,58.07
2022-09-05T17:58:26.119Z,57.76
2022-09-05T18:01:00.382Z,58.15
2022-09-05T18:03:37.905Z,58.14
2022-09-05T18:06:06.478Z,58.33
2022-09-05T18:08:47.971Z,58.53
2022-09-05T18:11:25.241Z,59.09
2022-09-05T18:14:03.043Z,59.20
2022-09-05T18:16:48.364Z,59.05
2022-09-05T18:19:46.298Z,59.64
2022-09-05T18:22:47.452Z,60.23
2022-09-05T18:26:02.605Z,60.53
2022-09-05T18:28:46.139Z,61.00
2022-09-05T18:31:41.618Z,61.39
2022-09-05T18:34:13.825Z,61.46
2022-09-05T18:36:53.677Z,61.53
2022-09-05T18:39:26.871Z,61.64
2022-09-05T18:42:25.846Z,61.73
2022-09-05T18:44:59.761Z,62.01
2022-09-05T18:47:58.827Z,62.16
2022-09-05T18:50:32.399Z,62.37
2022-09-05T18:53:09.092Z,62.59
2022-09-05T18:56:12.363Z,62.70
2022-09-05T18:59:14.587Z,62.88
2022-09-05T19:01:53.842Z,63.24
2022-09-05T19:04:46.207Z,63.28
2022-09-05T19:07:30.228Z,63.25
2022-09-05T19:10:34.641Z,63.55
2022-09-05T19:13:19.577Z,63.64
2022-09-05T19:16:43.079Z,63.32
2022-09-05T19:19:16.168Z,63.85
2022-09-05T19:22:09.076Z,64.20
2022-09-05T19:24:45.000Z,64.33
2022-09-05T19:29:10.471Z,64.13
2022-09-05T19:36:55.467Z,64.06
2022-09-05T19:37:08.356Z,64.59
2022-09-05T19:37:13.090Z,64.51
2022-09-05T19:39:40.562Z,64.11
2022-09-05T19:47:36.677Z,64.85
2022-09-05T19:47:37.189Z,65.10
2022-09-05T19:50:28.895Z,65.56
2022-09-05T19:53:06.532Z,65.84
2022-09-05T19:55:37.803Z,66.05
2022-09-05T19:58:19.544Z,66.31
2022-09-05T20:01:02.260Z,66.09
2022-09-05T20:03:40.045Z,66.17
2022-09-05T20:06:29.991Z,66.46
2022-09-05T20:09:19.848Z,66.65
2022-09-05T20:11:58.011Z,66.88
2022-09-05T20:14:31.637Z,66.71
2022-09-05T20:17:29.391Z,67.03
2022-09-05T20:20:10.826Z,67.31
2022-09-05T20:22:48.535Z,67.35
2022-09-05T20:25:35.560Z,67.46
2022-09-05T20:28:10.337Z,67.33
2022-09-05T20:30:45.074Z,67.29
2022-09-05T20:33:26.326Z,67.23
2022-09-05T20:41:48.640Z,67.16
2022-09-05T20:43:27.109Z,67.36
2022-09-05T20:43:35.535Z,67.30
2022-09-05T20:44:42.858Z,67.36
2022-09-05T20:54:08.451Z,67.21
2022-09-05T20:54:13.408Z,67.44
2022-09-05T20:54:31.641Z,67.66
2022-09-05T20:56:22.592Z,67.63
2022-09-05T20:58:51.743Z,67.42
2022-09-05T21:01:22.978Z,67.23
2022-09-05T21:04:02.800Z,66.98
2022-09-05T21:06:34.397Z,66.95
2022-09-05T21:09:14.694Z,66.95
2022-09-05T21:11:47.029Z,66.94
2022-09-05T21:14:22.048Z,67.30
2022-09-05T21:17:14.740Z,67.29
2022-09-05T21:19:53.967Z,67.70
2022-09-05T21:22:43.689Z,67.04
2022-09-05T21:25:26.051Z,67.00
2022-09-05T21:28:36.303Z,67.30
2022-09-05T21:31:15.777Z,67.50
2022-09-05T21:33:46.112Z,68.04
2022-09-05T21:36:15.705Z,67.99
2022-09-05T21:38:44.597Z,68.00
2022-09-05T21:41:16.452Z,68.55
2022-09-05T21:47:38.805Z,68.72
2022-09-05T21:47:48.112Z,68.79
2022-09-05T21:49:23.885Z,68.47
2022-09-05T21:51:52.064Z,68.70
2022-09-05T21:59:28.369Z,68.57
2022-09-05T21:59:28.922Z,68.48
2022-09-05T22:00:11.009Z,68.74
2022-09-05T22:02:47.239Z,68.81
2022-09-05T22:05:15.801Z,68.65
2022-09-05T22:07:43.893Z,68.95
2022-09-05T22:10:12.460Z,69.47
2022-09-05T22:12:41.140Z,69.75
2022-09-05T22:15:27.232Z,69.92
2022-09-05T22:18:16.537Z,70.02
2022-09-05T22:21:32.470Z,70.36
2022-09-05T22:23:46.968Z,70.65
2022-09-05T22:26:17.511Z,70.60
2022-09-05T22:28:51.906Z,70.57
2022-09-05T22:31:21.835Z,70.44
2022-09-05T22:33:51.109Z,70.11
2022-09-05T22:36:20.025Z,69.83
2022-09-05T22:38:48.290Z,69.92
2022-09-05T22:41:17.162Z,70.07
2022-09-05T22:43:46.688Z,70.06
2022-09-05T22:46:15.346Z,69.92
2022-09-05T22:48:43.746Z,69.56
2022-09-05T22:51:11.860Z,69.71
2022-09-05T22:53:40.176Z,69.73
2022-09-05T22:56:09.223Z,69.84
2022-09-05T22:58:44.968Z,69.82
2022-09-05T23:01:13.035Z,69.77
2022-09-05T23:03:41.190Z,69.81
2022-09-05T23:06:10.353Z,69.85
2022-09-05T23:08:38.464Z,69.88
2022-09-05T23:11:08.482Z,70.00
2022-09-05T23:13:36.551Z,70.04
2022-09-05T23:16:05.262Z,70.12
2022-09-05T23:18:33.923Z,70.04
2022-09-05T23:21:04.148Z,70.02
2022-09-05T23:23:32.321Z,70.22
2022-09-05T23:26:04.563Z,70.34
2022-09-05T23:28:32.867Z,70.56
2022-09-05T23:31:02.008Z,70.71
2022-09-05T23:33:30.440Z,70.74
2022-09-05T23:36:01.925Z,70.80
2022-09-05T23:38:30.277Z,71.10
2022-09-05T23:41:09.646Z,71.23
2022-09-05T23:43:38.187Z,71.39
2022-09-05T23:46:06.265Z,71.36
2022-09-05T23:48:34.948Z,71.36
2022-09-05T23:51:11.380Z,71.71
2022-09-05T23:53:39.979Z,71.66
2022-09-05T23:56:09.914Z,71.79
2022-09-05T23:58:38.987Z,71.91
